Krabi, Thailand

2:26 AM ICT on August 04, 2015 (GMT +0700)
Ao Nang, Krabi | | Change Station
CLOSE
Current Station
Personal Weather Station
Location: Ao Nang, Krabi
Elevation: 177 ft
Nearby Weather Stations

Elev 177 ft 8.05 °N, 98.84 °E | Updated 1 second ago

Light Rain
Light Rain
73.9 °F
Feels Like 71 °F
N
0.0
Wind Variable Wind from SSE
Gusts 1.0 mph

Today
High -- | Low -- °F
--% Chance of Precip.
Yesterday
High -- | Low -- °F
Precip. -- in
6:16 AM 6:43 PM
Waning Gibbous, 84% visible
Pressure 29.89 in
Visibility 4.3 miles
Clouds Scattered Clouds 1800 ft
Mostly Cloudy 30000 ft
Heat Index 71 °F
Dew Point 72 °F
Humidity 95%
Rainfall 0.30 in
Snow Depth Not available.
UV 0.0 out of 12
Pollen Not available.
Air Quality Not available.
Flu Activity Not available.
METAR VTSP 031900Z 00000KT 7000 -RA SCT018 BKN300 24/22 Q1012 A2989 NOSIG

More Conditions Fewer Conditions

Pressure 29.89 in
Visibility 4.3 miles
Clouds Scattered Clouds 1800 ft
Mostly Cloudy 30000 ft
Heat Index 71 °F
Dew Point 72 °F
Humidity 95%
Rainfall 0.30 in
Snow Depth Not available.
UV 0.0 out of 12
Pollen Not available.
Air Quality Not available.
Flu Activity Not available.
METAR VTSP 031900Z 00000KT 7000 -RA SCT018 BKN300 24/22 Q1012 A2989 NOSIG

More Conditions Fewer Conditions

10-Day Weather Forecast

×

Almanac

Astronomy

Aug. 04, 2015 Rise Set
Actual Time
Civil Twilight
Nautical Twilight
Astronomical Twilight
Moon
Length of Visible Light
Length of Day
Tomorrow will be .
, % of the Moon is Illuminated

Today's Extremes

Country Highs Country Lows

Community

WunderPhotos

Upload Photos

1,843,710 photos uploaded!

WunderBlogs® & News

Nearby

Air Quality

  Air Quality AQ Index Pollutant
Not available.

Snow Depth

Station Depth Elevation

Earthquake Activity

City Distance Mag. Time & Date
Minimum magnitude displayed is 2.5.

Coastal Water Temperatures

Place Temperature

Stations

Nearby Weather Stations

Station Location Temp. Windchill Dew Point Humidity Wind Precip. Elev Updated Type